Terminal Aerodrome Forecast
Issued by NWS Spokane, WA

Home | Current Version | Previous Version | Text Only | Print | Product List | Glossary On
Versions: 1 2 3 4 5 6 7 8 9 10 11 12 13 14 15 16 17 18 19 20 21 22 23 24 25 26 27 28
000
FTUS46 KOTX 012103 AAA
TAFGEG
TAF AMD
KGEG 012103Z 0121/0218 25012G23KT P6SM BKN060 BKN080
     FM020200 22010KT P6SM FEW050 SCT150
     FM020600 24006KT P6SM FEW150
     FM021500 20004KT P6SM SKC=

USA.gov is the U.S. government's official web portal to all federal, state and local government web resources and services.